createdAt,value
2023-05-05T00:01:21.619Z,789.00
2023-05-05T00:06:25.027Z,780.47
2023-05-05T00:11:26.974Z,784.85
2023-05-05T00:16:29.201Z,787.05
2023-05-05T00:21:31.419Z,790.88
2023-05-05T00:26:33.941Z,792.25
2023-05-05T00:31:36.637Z,802.00
2023-05-05T00:36:40.031Z,799.10
2023-05-05T00:41:42.541Z,791.72
2023-05-05T00:46:46.156Z,810.88
2023-05-05T00:51:48.184Z,801.03
2023-05-05T00:56:51.106Z,804.95
2023-05-05T01:01:54.486Z,806.38
2023-05-05T01:07:11.674Z,806.33
2023-05-05T01:12:50.331Z,793.40
2023-05-05T01:18:06.989Z,823.97
2023-05-05T01:23:18.929Z,820.30
2023-05-05T01:28:39.561Z,805.03
2023-05-05T01:33:49.799Z,816.93
2023-05-05T01:39:02.279Z,818.53
2023-05-05T01:44:06.511Z,837.67
2023-05-05T01:49:13.532Z,838.47
2023-05-05T01:54:17.701Z,805.30
2023-05-05T01:59:23.411Z,824.90
2023-05-05T02:04:29.698Z,796.67
2023-05-05T02:09:32.498Z,803.17
2023-05-05T02:14:36.313Z,818.90
2023-05-05T02:19:44.301Z,795.05
2023-05-05T02:24:47.410Z,784.78
2023-05-05T02:30:15.342Z,778.75
2023-05-05T02:35:21.414Z,778.00
2023-05-05T02:40:25.430Z,776.03
2023-05-05T02:45:32.425Z,776.65
2023-05-05T02:50:35.687Z,768.23
2023-05-05T02:56:14.750Z,781.13
2023-05-05T03:01:35.128Z,776.65
2023-05-05T03:06:42.514Z,779.53
2023-05-05T03:11:51.051Z,784.10
2023-05-05T03:22:13.255Z,788.73
2023-05-05T03:27:20.737Z,803.43
2023-05-05T03:32:24.187Z,757.38
2023-05-05T03:37:38.631Z,742.45
2023-05-05T03:42:41.214Z,755.35
2023-05-05T03:47:46.227Z,777.57
2023-05-05T03:52:48.610Z,785.87
2023-05-05T03:57:50.719Z,765.13
2023-05-05T04:02:52.741Z,760.23
2023-05-05T04:07:55.204Z,777.23
2023-05-05T04:13:05.025Z,780.50
2023-05-05T04:18:08.193Z,750.03
2023-05-05T04:23:10.380Z,790.57
2023-05-05T04:28:12.423Z,804.60
2023-05-05T04:33:14.965Z,766.10
2023-05-05T04:38:19.419Z,771.63
2023-05-05T04:48:40.087Z,731.53
2023-05-05T04:53:43.178Z,762.23
2023-05-05T04:58:45.087Z,744.28
2023-05-05T05:03:47.439Z,751.73
2023-05-05T05:08:49.571Z,713.78
2023-05-05T05:13:51.525Z,730.28
2023-05-05T05:18:53.734Z,743.22
2023-05-05T05:23:55.860Z,778.43
2023-05-05T05:28:58.731Z,768.40
2023-05-05T05:34:01.197Z,739.58
2023-05-05T05:39:05.360Z,736.25
2023-05-05T05:44:08.374Z,740.60
2023-05-05T05:49:11.089Z,765.88
2023-05-05T05:54:13.155Z,761.47
2023-05-05T05:59:16.947Z,764.55
2023-05-05T06:04:24.181Z,783.15
2023-05-05T06:09:29.534Z,791.42
2023-05-05T06:14:55.285Z,797.67
2023-05-05T06:19:57.183Z,820.92
2023-05-05T06:25:00.274Z,814.33
2023-05-05T06:30:02.725Z,829.25
2023-05-05T06:35:08.383Z,830.75
2023-05-05T06:40:15.352Z,843.35
2023-05-05T06:45:17.324Z,852.13
2023-05-05T06:50:20.277Z,863.30
2023-05-05T06:55:24.100Z,863.45
2023-05-05T07:00:33.899Z,867.28
2023-05-05T07:05:36.729Z,876.95
2023-05-05T07:10:39.022Z,879.55
2023-05-05T07:15:48.643Z,892.95
2023-05-05T07:20:51.514Z,903.55
2023-05-05T07:25:55.178Z,909.45
2023-05-05T07:30:57.535Z,917.13
2023-05-05T07:35:59.449Z,926.25
2023-05-05T07:41:02.254Z,929.40
2023-05-05T07:46:06.721Z,942.28
2023-05-05T07:51:11.976Z,950.25
2023-05-05T07:56:16.077Z,946.22
2023-05-05T08:01:18.667Z,950.63
2023-05-05T08:06:22.316Z,953.38
2023-05-05T08:11:27.170Z,965.45
2023-05-05T08:16:30.409Z,965.45
2023-05-05T08:21:35.578Z,969.20
2023-05-05T08:26:40.616Z,976.07
2023-05-05T08:31:43.009Z,981.88
2023-05-05T08:36:45.853Z,994.30
2023-05-05T08:41:49.151Z,994.63
2023-05-05T08:46:51.760Z,999.35
2023-05-05T08:51:55.326Z,998.17
2023-05-05T08:57:01.911Z,998.45
2023-05-05T09:02:05.287Z,999.90
2023-05-05T09:07:09.605Z,999.88
2023-05-05T09:12:11.999Z,999.88
2023-05-05T09:17:27.050Z,999.90
2023-05-05T09:22:37.152Z,999.90
2023-05-05T09:27:48.203Z,999.90
2023-05-05T09:32:53.047Z,999.90
2023-05-05T09:37:55.824Z,999.90
2023-05-05T09:43:03.379Z,999.90
2023-05-05T09:48:06.999Z,999.90
2023-05-05T09:53:16.398Z,999.90
2023-05-05T09:58:30.886Z,999.90
2023-05-05T10:03:33.031Z,997.03
2023-05-05T10:08:34.902Z,998.80
2023-05-05T10:13:42.940Z,999.05
2023-05-05T10:18:46.658Z,998.10
2023-05-05T10:23:55.820Z,999.60
2023-05-05T10:29:11.504Z,999.90
2023-05-05T10:34:24.365Z,999.00
2023-05-05T10:39:27.910Z,998.75
2023-05-05T10:44:35.238Z,992.85
2023-05-05T10:49:50.275Z,999.90
2023-05-05T10:55:07.864Z,999.90
2023-05-05T11:00:10.983Z,999.90
2023-05-05T11:05:18.227Z,999.90
2023-05-05T11:10:27.927Z,999.90
2023-05-05T11:15:30.039Z,999.90
2023-05-05T11:20:49.424Z,988.55
2023-05-05T11:25:53.905Z,953.35
2023-05-05T11:30:56.065Z,907.15
2023-05-05T11:35:59.737Z,867.03
2023-05-05T11:41:32.306Z,836.20
2023-05-05T11:46:34.248Z,795.85
2023-05-05T11:51:36.617Z,791.17
2023-05-05T11:56:50.662Z,792.75
2023-05-05T12:01:52.649Z,780.58
2023-05-05T12:06:55.488Z,783.28
2023-05-05T12:12:00.201Z,803.05
2023-05-05T12:17:09.508Z,778.63
2023-05-05T12:22:21.998Z,800.60
2023-05-05T12:27:25.162Z,811.72
2023-05-05T12:32:28.134Z,800.30
2023-05-05T12:37:30.370Z,808.20
2023-05-05T12:42:38.950Z,798.58
2023-05-05T12:47:44.003Z,802.38
2023-05-05T12:52:47.536Z,808.83
2023-05-05T12:58:05.003Z,796.70
2023-05-05T13:03:09.583Z,793.15
2023-05-05T13:08:12.392Z,807.20
2023-05-05T13:13:17.856Z,792.28
2023-05-05T13:18:22.627Z,794.88
2023-05-05T13:23:25.871Z,792.10
2023-05-05T13:28:27.844Z,798.05
2023-05-05T13:33:29.708Z,817.75
2023-05-05T13:38:38.509Z,811.70
2023-05-05T13:43:41.802Z,816.58
2023-05-05T13:48:44.042Z,825.25
2023-05-05T13:53:50.119Z,824.72
2023-05-05T13:58:56.338Z,822.80
2023-05-05T14:04:03.633Z,820.28
2023-05-05T14:09:08.912Z,824.90
2023-05-05T14:14:10.836Z,823.80
2023-05-05T14:19:13.751Z,815.33
2023-05-05T14:24:16.088Z,826.70
2023-05-05T14:29:25.836Z,836.75
2023-05-05T14:34:28.346Z,825.42
2023-05-05T14:39:31.086Z,834.58
2023-05-05T14:44:34.967Z,851.30
2023-05-05T14:49:36.823Z,860.13
2023-05-05T14:54:41.641Z,852.10
2023-05-05T14:59:45.712Z,839.67
2023-05-05T15:04:49.264Z,852.78
2023-05-05T15:10:01.009Z,882.65
2023-05-05T15:15:02.894Z,890.35
2023-05-05T15:20:08.153Z,876.67
2023-05-05T15:25:13.315Z,897.50
2023-05-05T15:30:15.627Z,883.47
2023-05-05T15:35:17.554Z,887.00
2023-05-05T15:40:22.652Z,865.90
2023-05-05T15:45:24.772Z,871.50
2023-05-05T15:50:30.171Z,867.38
2023-05-05T15:55:33.243Z,858.03
2023-05-05T16:00:35.268Z,860.22
2023-05-05T16:05:37.708Z,856.55
2023-05-05T16:10:39.698Z,855.38
2023-05-05T16:15:41.947Z,866.67
2023-05-05T16:20:43.837Z,858.75
2023-05-05T16:25:49.212Z,855.53
2023-05-05T16:30:53.213Z,848.33
2023-05-05T16:35:57.654Z,852.22
2023-05-05T16:41:00.902Z,871.58
2023-05-05T16:46:06.694Z,865.85
2023-05-05T16:51:09.041Z,883.00
2023-05-05T16:56:15.535Z,862.95
2023-05-05T17:01:17.486Z,861.60
2023-05-05T17:06:19.455Z,868.97
2023-05-05T17:11:22.299Z,874.78
2023-05-05T17:16:27.212Z,866.55
2023-05-05T17:21:29.471Z,853.85
2023-05-05T17:26:33.224Z,855.90
2023-05-05T17:31:35.196Z,857.10
2023-05-05T17:36:37.852Z,855.92
2023-05-05T17:41:42.056Z,850.35
2023-05-05T17:46:44.053Z,846.40
2023-05-05T17:51:45.966Z,855.92
2023-05-05T17:56:54.132Z,852.60
2023-05-05T18:01:56.387Z,852.22
2023-05-05T18:06:59.157Z,846.83
2023-05-05T18:12:01.622Z,846.78
2023-05-05T18:17:04.816Z,835.88
2023-05-05T18:22:07.038Z,838.72
2023-05-05T18:27:09.616Z,854.80
2023-05-05T18:32:12.651Z,837.83
2023-05-05T18:37:15.006Z,826.28
2023-05-05T18:42:17.047Z,821.22
2023-05-05T18:47:20.541Z,830.83
2023-05-05T18:52:22.908Z,820.40
2023-05-05T18:57:25.526Z,807.08
2023-05-05T19:02:27.472Z,813.72
2023-05-05T19:07:35.548Z,804.53
2023-05-05T19:12:38.577Z,812.17
2023-05-05T19:17:40.532Z,808.53
2023-05-05T19:22:43.523Z,811.40
2023-05-05T19:27:45.657Z,775.95
2023-05-05T19:32:51.194Z,778.15
2023-05-05T19:37:54.151Z,774.80
2023-05-05T19:42:56.364Z,773.60
2023-05-05T19:47:58.453Z,765.72
2023-05-05T19:53:00.356Z,758.60
2023-05-05T19:58:05.317Z,759.55
2023-05-05T20:03:07.273Z,764.25
2023-05-05T20:08:09.260Z,762.08
2023-05-05T20:13:11.380Z,747.38
2023-05-05T20:18:14.386Z,746.55
2023-05-05T20:23:19.251Z,730.42
2023-05-05T20:28:22.588Z,742.33
2023-05-05T20:33:24.472Z,749.05
2023-05-05T20:38:26.525Z,730.97
2023-05-05T20:43:29.502Z,729.08
2023-05-05T20:48:31.342Z,715.80
2023-05-05T20:53:34.694Z,713.40
2023-05-05T20:58:37.680Z,729.40
2023-05-05T21:03:40.027Z,710.45
2023-05-05T21:08:41.938Z,706.58
2023-05-05T21:13:44.456Z,713.58
2023-05-05T21:18:47.326Z,716.60
2023-05-05T21:23:49.765Z,710.95
2023-05-05T21:28:52.900Z,702.10
2023-05-05T21:33:55.424Z,723.22
2023-05-05T21:38:59.739Z,695.35
2023-05-05T21:44:02.892Z,692.20
2023-05-05T21:49:13.812Z,684.00
2023-05-05T21:54:37.048Z,712.03
2023-05-05T21:59:39.979Z,734.83
2023-05-05T22:04:46.556Z,755.47
2023-05-05T22:09:48.445Z,716.27
2023-05-05T22:14:51.409Z,747.57
2023-05-05T22:19:54.228Z,771.07
2023-05-05T22:24:56.973Z,706.13
2023-05-05T22:30:01.757Z,672.07
2023-05-05T22:35:04.946Z,711.63
2023-05-05T22:40:13.578Z,712.53
2023-05-05T22:45:17.062Z,676.90
2023-05-05T22:50:21.509Z,677.40
2023-05-05T22:55:25.954Z,673.33
2023-05-05T23:00:28.321Z,660.10
2023-05-05T23:05:32.020Z,664.28
2023-05-05T23:10:34.215Z,665.72
2023-05-05T23:15:36.908Z,673.60
2023-05-05T23:20:38.753Z,684.95
2023-05-05T23:25:40.846Z,675.88
2023-05-05T23:30:42.766Z,680.38
2023-05-05T23:35:45.604Z,685.17
2023-05-05T23:40:47.473Z,671.78
2023-05-05T23:45:49.460Z,681.88
2023-05-05T23:50:52.553Z,688.05
2023-05-05T23:55:54.386Z,685.70
